sensor_id;sensor_type;location;lat;lon;timestamp;pressure;altitude;pressure_sealevel;temperature;humidity
73240;BME280;61452;40.054;4.110;2022-07-21T00:00:43;102013.94;;;28.10;78.00
73240;BME280;61452;40.054;4.110;2022-07-21T00:05:45;102016.91;;;28.17;77.57
73240;BME280;61452;40.054;4.110;2022-07-21T00:10:47;102012.84;;;28.21;77.81
73240;BME280;61452;40.054;4.110;2022-07-21T00:15:50;102011.00;;;28.22;77.57
73240;BME280;61452;40.054;4.110;2022-07-21T00:20:53;102013.25;;;28.26;77.58
73240;BME280;61452;40.054;4.110;2022-07-21T00:25:56;102012.56;;;28.24;77.33
73240;BME280;61452;40.054;4.110;2022-07-21T00:30:58;102007.78;;;28.18;77.36
73240;BME280;61452;40.054;4.110;2022-07-21T00:36:01;102007.66;;;28.20;77.56
73240;BME280;61452;40.054;4.110;2022-07-21T00:41:03;102009.34;;;28.21;77.49
73240;BME280;61452;40.054;4.110;2022-07-21T00:46:06;102010.34;;;28.20;77.33
73240;BME280;61452;40.054;4.110;2022-07-21T00:51:08;102000.56;;;28.19;77.12
73240;BME280;61452;40.054;4.110;2022-07-21T00:56:11;102005.09;;;28.18;77.20
73240;BME280;61452;40.054;4.110;2022-07-21T01:01:13;101991.38;;;28.11;77.47
73240;BME280;61452;40.054;4.110;2022-07-21T01:06:16;101994.91;;;28.12;77.53
73240;BME280;61452;40.054;4.110;2022-07-21T01:11:20;101988.66;;;28.11;77.49
73240;BME280;61452;40.054;4.110;2022-07-21T01:16:24;101989.66;;;28.10;77.67
73240;BME280;61452;40.054;4.110;2022-07-21T01:21:35;101977.88;;;28.11;78.02
73240;BME280;61452;40.054;4.110;2022-07-21T01:26:44;101980.41;;;28.13;78.17
73240;BME280;61452;40.054;4.110;2022-07-21T01:31:49;101977.88;;;28.11;78.22
73240;BME280;61452;40.054;4.110;2022-07-21T01:36:51;101979.88;;;28.09;78.22
73240;BME280;61452;40.054;4.110;2022-07-21T01:41:54;101980.88;;;28.08;78.19
73240;BME280;61452;40.054;4.110;2022-07-21T01:46:57;101976.66;;;28.06;78.24
73240;BME280;61452;40.054;4.110;2022-07-21T01:51:59;101975.47;;;28.08;78.33
73240;BME280;61452;40.054;4.110;2022-07-21T01:57:02;101967.72;;;28.05;77.94
73240;BME280;61452;40.054;4.110;2022-07-21T02:02:04;101974.81;;;28.06;78.29
73240;BME280;61452;40.054;4.110;2022-07-21T02:07:07;101974.81;;;28.06;77.82
73240;BME280;61452;40.054;4.110;2022-07-21T02:12:10;101972.97;;;28.07;77.29
73240;BME280;61452;40.054;4.110;2022-07-21T02:17:12;101983.56;;;28.08;76.97
73240;BME280;61452;40.054;4.110;2022-07-21T02:22:15;101985.13;;;28.11;76.99
73240;BME280;61452;40.054;4.110;2022-07-21T02:27:17;101974.81;;;28.06;77.14
73240;BME280;61452;40.054;4.110;2022-07-21T02:32:19;101976.50;;;28.07;77.28
73240;BME280;61452;40.054;4.110;2022-07-21T02:37:22;101963.66;;;28.01;77.30
73240;BME280;61452;40.054;4.110;2022-07-21T02:42:24;101970.41;;;28.05;76.91
73240;BME280;61452;40.054;4.110;2022-07-21T02:47:27;101972.13;;;28.06;76.89
73240;BME280;61452;40.054;4.110;2022-07-21T02:52:29;101970.41;;;28.05;77.07
73240;BME280;61452;40.054;4.110;2022-07-21T02:57:32;101973.13;;;28.05;77.33
73240;BME280;61452;40.054;4.110;2022-07-21T03:02:35;101964.66;;;28.00;77.35
73240;BME280;61452;40.054;4.110;2022-07-21T03:07:37;101964.31;;;28.03;77.14
73240;BME280;61452;40.054;4.110;2022-07-21T03:12:39;101963.47;;;28.03;76.89
73240;BME280;61452;40.054;4.110;2022-07-21T03:17:42;101966.34;;;28.01;76.53
73240;BME280;61452;40.054;4.110;2022-07-21T03:22:44;101962.63;;;28.02;76.51
73240;BME280;61452;40.054;4.110;2022-07-21T03:27:47;101959.56;;;27.97;76.58
73240;BME280;61452;40.054;4.110;2022-07-21T03:32:50;101965.31;;;28.02;76.06
73240;BME280;61452;40.054;4.110;2022-07-21T03:37:54;101962.97;;;27.99;75.62
73240;BME280;61452;40.054;4.110;2022-07-21T03:42:58;101964.66;;;28.00;76.15
73240;BME280;61452;40.054;4.110;2022-07-21T03:48:03;101956.88;;;27.97;76.59
73240;BME280;61452;40.054;4.110;2022-07-21T03:53:07;101962.81;;;28.01;76.54
73240;BME280;61452;40.054;4.110;2022-07-21T03:58:12;101961.81;;;28.02;75.38
73240;BME280;61452;40.054;4.110;2022-07-21T04:03:14;101966.03;;;28.04;75.11
73240;BME280;61452;40.054;4.110;2022-07-21T04:08:17;101968.03;;;28.02;73.89
73240;BME280;61452;40.054;4.110;2022-07-21T04:13:19;101961.81;;;28.02;74.19
73240;BME280;61452;40.054;4.110;2022-07-21T04:18:26;101973.28;;;28.04;73.31
73240;BME280;61452;40.054;4.110;2022-07-21T04:23:29;101979.66;;;28.03;74.47
73240;BME280;61452;40.054;4.110;2022-07-21T04:28:31;101978.81;;;28.02;73.23
73240;BME280;61452;40.054;4.110;2022-07-21T04:33:34;101979.00;;;28.01;74.18
73240;BME280;61452;40.054;4.110;2022-07-21T04:38:38;101975.59;;;27.99;74.34
73240;BME280;61452;40.054;4.110;2022-07-21T04:43:41;101982.84;;;27.98;74.40
73240;BME280;61452;40.054;4.110;2022-07-21T04:48:43;101996.34;;;27.98;74.02
73240;BME280;61452;40.054;4.110;2022-07-21T04:53:45;101992.63;;;27.99;73.44
73240;BME280;61452;40.054;4.110;2022-07-21T04:58:48;101985.03;;;27.95;73.06
73240;BME280;61452;40.054;4.110;2022-07-21T05:03:51;101981.34;;;27.96;73.30
73240;BME280;61452;40.054;4.110;2022-07-21T05:08:53;101982.84;;;27.98;73.11
73240;BME280;61452;40.054;4.110;2022-07-21T05:13:56;101986.72;;;27.96;73.45
73240;BME280;61452;40.054;4.110;2022-07-21T05:18:59;101992.63;;;27.99;72.92
73240;BME280;61452;40.054;4.110;2022-07-21T05:24:01;101994.47;;;27.99;72.71
73240;BME280;61452;40.054;4.110;2022-07-21T05:29:04;101995.47;;;27.98;72.79
73240;BME280;61452;40.054;4.110;2022-07-21T05:34:06;101990.25;;;27.96;72.62
73240;BME280;61452;40.054;4.110;2022-07-21T05:39:08;101994.63;;;27.97;72.36
73240;BME280;61452;40.054;4.110;2022-07-21T05:44:11;102003.72;;;27.96;72.17
73240;BME280;61452;40.054;4.110;2022-07-21T05:49:13;101999.19;;;27.97;72.54
73240;BME280;61452;40.054;4.110;2022-07-21T05:54:15;101992.28;;;27.94;72.96
73240;BME280;61452;40.054;4.110;2022-07-21T05:59:18;102001.03;;;27.96;72.80
73240;BME280;61452;40.054;4.110;2022-07-21T06:04:20;101995.63;;;27.96;72.78
73240;BME280;61452;40.054;4.110;2022-07-21T06:09:22;102009.13;;;27.96;72.61
73240;BME280;61452;40.054;4.110;2022-07-21T06:14:26;102004.91;;;27.94;72.68
73240;BME280;61452;40.054;4.110;2022-07-21T06:19:30;102012.16;;;27.93;72.59
73240;BME280;61452;40.054;4.110;2022-07-21T06:24:33;102004.91;;;27.94;72.12
73240;BME280;61452;40.054;4.110;2022-07-21T06:29:35;102014.53;;;27.96;71.13
73240;BME280;61452;40.054;4.110;2022-07-21T06:34:37;102025.00;;;27.99;69.76
73240;BME280;61452;40.054;4.110;2022-07-21T06:39:40;102028.69;;;27.98;69.82
73240;BME280;61452;40.054;4.110;2022-07-21T06:44:43;102030.56;;;27.98;70.30
73240;BME280;61452;40.054;4.110;2022-07-21T06:49:53;102025.31;;;27.96;69.82
73240;BME280;61452;40.054;4.110;2022-07-21T06:55:00;102026.84;;;27.99;70.01
73240;BME280;61452;40.054;4.110;2022-07-21T07:00:04;102035.94;;;27.98;69.35
73240;BME280;61452;40.054;4.110;2022-07-21T07:05:08;102036.78;;;27.98;69.97
73240;BME280;61452;40.054;4.110;2022-07-21T07:10:10;102041.50;;;27.96;69.16
73240;BME280;61452;40.054;4.110;2022-07-21T07:15:13;102038.50;;;27.99;69.30
73240;BME280;61452;40.054;4.110;2022-07-21T07:20:15;102027.72;;;27.99;69.85
73240;BME280;61452;40.054;4.110;2022-07-21T07:25:18;102040.03;;;28.02;69.51
73240;BME280;61452;40.054;4.110;2022-07-21T07:30:32;102030.63;;;28.06;68.78
73240;BME280;61452;40.054;4.110;2022-07-21T07:35:34;102034.16;;;28.06;69.10
73240;BME280;61452;40.054;4.110;2022-07-21T07:40:37;102033.31;;;28.06;68.92
73240;BME280;61452;40.054;4.110;2022-07-21T07:45:39;102037.72;;;28.07;69.39
73240;BME280;61452;40.054;4.110;2022-07-21T07:50:42;102040.22;;;28.08;68.97
73240;BME280;61452;40.054;4.110;2022-07-21T07:55:44;102041.78;;;28.11;68.43
73240;BME280;61452;40.054;4.110;2022-07-21T08:00:46;102039.22;;;28.09;68.50
73240;BME280;61452;40.054;4.110;2022-07-21T08:05:58;102036.22;;;28.12;69.39
73240;BME280;61452;40.054;4.110;2022-07-21T08:11:04;102033.47;;;28.04;70.39
73240;BME280;61452;40.054;4.110;2022-07-21T08:16:07;102040.41;;;28.07;70.47
73240;BME280;61452;40.054;4.110;2022-07-21T08:21:10;102034.16;;;28.06;70.80
73240;BME280;61452;40.054;4.110;2022-07-21T08:26:13;102045.81;;;28.07;71.16
73240;BME280;61452;40.054;4.110;2022-07-21T08:31:15;102039.88;;;28.03;71.63
73240;BME280;61452;40.054;4.110;2022-07-21T08:36:18;102040.03;;;28.02;71.66
73240;BME280;61452;40.054;4.110;2022-07-21T08:41:26;102039.88;;;28.03;71.55
73240;BME280;61452;40.054;4.110;2022-07-21T08:46:29;102041.56;;;28.04;71.58
73240;BME280;61452;40.054;4.110;2022-07-21T08:51:33;102048.81;;;28.04;71.55
73240;BME280;61452;40.054;4.110;2022-07-21T08:56:38;102047.97;;;28.03;71.51
73240;BME280;61452;40.054;4.110;2022-07-21T09:01:41;102048.81;;;28.04;71.84
73240;BME280;61452;40.054;4.110;2022-07-21T09:06:57;102052.34;;;28.04;71.74
73240;BME280;61452;40.054;4.110;2022-07-21T09:12:01;102057.75;;;28.04;72.28
73240;BME280;61452;40.054;4.110;2022-07-21T09:17:03;102055.06;;;28.04;72.18
73240;BME280;61452;40.054;4.110;2022-07-21T09:22:15;102048.13;;;28.02;72.20
73240;BME280;61452;40.054;4.110;2022-07-21T09:27:22;102057.75;;;28.04;72.02
73240;BME280;61452;40.054;4.110;2022-07-21T09:37:27;102068.53;;;28.04;72.63
73240;BME280;61452;40.054;4.110;2022-07-21T09:42:32;102073.94;;;28.04;72.73
73240;BME280;61452;40.054;4.110;2022-07-21T09:47:36;102068.53;;;28.04;72.37
73240;BME280;61452;40.054;4.110;2022-07-21T09:52:45;102072.25;;;28.03;72.60
73240;BME280;61452;40.054;4.110;2022-07-21T09:57:49;102072.25;;;28.03;72.50
73240;BME280;61452;40.054;4.110;2022-07-21T10:02:52;102080.19;;;28.05;72.68
73240;BME280;61452;40.054;4.110;2022-07-21T10:07:55;102084.72;;;28.04;72.41
73240;BME280;61452;40.054;4.110;2022-07-21T10:12:59;102082.72;;;28.06;72.59
73240;BME280;61452;40.054;4.110;2022-07-21T10:18:02;102083.72;;;28.05;72.75
73240;BME280;61452;40.054;4.110;2022-07-21T10:23:34;102087.28;;;28.06;73.01
73240;BME280;61452;40.054;4.110;2022-07-21T10:28:38;102083.41;;;28.08;72.97
73240;BME280;61452;40.054;4.110;2022-07-21T10:38:46;102077.56;;;28.13;72.69
73240;BME280;61452;40.054;4.110;2022-07-21T10:43:49;102080.50;;;28.20;70.65
73240;BME280;61452;40.054;4.110;2022-07-21T10:48:52;102077.00;;;28.27;72.67
73240;BME280;61452;40.054;4.110;2022-07-21T10:54:19;102081.34;;;28.20;73.10
73240;BME280;61452;40.054;4.110;2022-07-21T10:59:22;102074.25;;;28.19;73.07
73240;BME280;61452;40.054;4.110;2022-07-21T11:04:24;102070.00;;;28.16;73.35
73240;BME280;61452;40.054;4.110;2022-07-21T11:09:26;102070.16;;;28.15;73.86
73240;BME280;61452;40.054;4.110;2022-07-21T11:14:41;102069.63;;;28.11;73.53
73240;BME280;61452;40.054;4.110;2022-07-21T11:19:44;102073.91;;;28.14;73.50
73240;BME280;61452;40.054;4.110;2022-07-21T11:25:05;102071.31;;;28.12;74.00
73240;BME280;61452;40.054;4.110;2022-07-21T11:30:09;102070.47;;;28.12;73.99
73240;BME280;61452;40.054;4.110;2022-07-21T11:35:12;102067.31;;;28.16;73.61
73240;BME280;61452;40.054;4.110;2022-07-21T11:40:19;102069.16;;;28.16;73.46
73240;BME280;61452;40.054;4.110;2022-07-21T11:45:24;102059.56;;;28.13;73.94
73240;BME280;61452;40.054;4.110;2022-07-21T11:50:29;102062.06;;;28.15;73.57
73240;BME280;61452;40.054;4.110;2022-07-21T11:55:32;102061.91;;;28.16;73.86
73240;BME280;61452;40.054;4.110;2022-07-21T12:00:34;102054.66;;;28.17;73.76
73240;BME280;61452;40.054;4.110;2022-07-21T12:05:37;102051.13;;;28.16;74.17
73240;BME280;61452;40.054;4.110;2022-07-21T12:10:41;102042.19;;;28.16;73.66
73240;BME280;61452;40.054;4.110;2022-07-21T12:15:43;102043.38;;;28.13;73.25
73240;BME280;61452;40.054;4.110;2022-07-21T12:20:46;102042.19;;;28.16;73.05
73240;BME280;61452;40.054;4.110;2022-07-21T12:25:56;102042.53;;;28.21;73.13
73240;BME280;61452;40.054;4.110;2022-07-21T12:31:10;102045.84;;;28.33;72.45
73240;BME280;61452;40.054;4.110;2022-07-21T12:36:13;102039.28;;;28.35;72.62
73240;BME280;61452;40.054;4.110;2022-07-21T12:41:17;102041.59;;;28.30;73.47
73240;BME280;61452;40.054;4.110;2022-07-21T12:46:33;102038.53;;;28.25;73.12
73240;BME280;61452;40.054;4.110;2022-07-21T12:51:36;102032.44;;;28.23;73.36
73240;BME280;61452;40.054;4.110;2022-07-21T12:56:39;102045.78;;;28.25;72.96
73240;BME280;61452;40.054;4.110;2022-07-21T13:01:41;102044.94;;;28.24;73.33
73240;BME280;61452;40.054;4.110;2022-07-21T13:06:44;102036.00;;;28.24;73.06
73240;BME280;61452;40.054;4.110;2022-07-21T13:11:46;102037.69;;;28.25;72.76
73240;BME280;61452;40.054;4.110;2022-07-21T13:16:48;102029.75;;;28.23;72.90
73240;BME280;61452;40.054;4.110;2022-07-21T13:21:52;102027.06;;;28.23;72.56
73240;BME280;61452;40.054;4.110;2022-07-21T13:26:54;102021.81;;;28.22;72.15
73240;BME280;61452;40.054;4.110;2022-07-21T13:31:56;102020.28;;;28.19;72.17
73240;BME280;61452;40.054;4.110;2022-07-21T13:36:59;102017.25;;;28.22;72.26
73240;BME280;61452;40.054;4.110;2022-07-21T13:42:01;102011.19;;;28.20;72.12
73240;BME280;61452;40.054;4.110;2022-07-21T13:47:24;102009.00;;;28.24;72.39
73240;BME280;61452;40.054;4.110;2022-07-21T13:52:26;102011.88;;;28.22;72.78
73240;BME280;61452;40.054;4.110;2022-07-21T13:57:28;102003.75;;;28.22;72.64
73240;BME280;61452;40.054;4.110;2022-07-21T14:02:31;102000.75;;;28.25;72.86
73240;BME280;61452;40.054;4.110;2022-07-21T14:07:33;101982.34;;;28.21;72.91
73240;BME280;61452;40.054;4.110;2022-07-21T14:12:35;101981.16;;;28.23;72.97
73240;BME280;61452;40.054;4.110;2022-07-21T14:17:43;101971.38;;;28.22;73.14
73240;BME280;61452;40.054;4.110;2022-07-21T14:22:46;101966.97;;;28.21;72.97
73240;BME280;61452;40.054;4.110;2022-07-21T14:27:50;101970.38;;;28.23;73.15
73240;BME280;61452;40.054;4.110;2022-07-21T14:32:55;101970.22;;;28.25;73.28
73240;BME280;61452;40.054;4.110;2022-07-21T14:37:58;101957.88;;;28.22;73.19
73240;BME280;61452;40.054;4.110;2022-07-21T14:43:00;101958.59;;;28.24;73.49
73240;BME280;61452;40.054;4.110;2022-07-21T14:48:03;101951.34;;;28.25;73.21
73240;BME280;61452;40.054;4.110;2022-07-21T14:53:06;101943.25;;;28.25;73.08
73240;BME280;61452;40.054;4.110;2022-07-21T14:58:08;101936.31;;;28.22;73.30
73240;BME280;61452;40.054;4.110;2022-07-21T15:03:11;101937.69;;;28.26;73.00
73240;BME280;61452;40.054;4.110;2022-07-21T15:08:13;101932.28;;;28.26;72.79
73240;BME280;61452;40.054;4.110;2022-07-21T15:13:16;101935.00;;;28.26;73.10
73240;BME280;61452;40.054;4.110;2022-07-21T15:18:18;101920.81;;;28.24;73.36
73240;BME280;61452;40.054;4.110;2022-07-21T15:23:21;101912.72;;;28.24;73.35
73240;BME280;61452;40.054;4.110;2022-07-21T15:28:23;101917.59;;;28.29;72.97
73240;BME280;61452;40.054;4.110;2022-07-21T15:33:25;101915.75;;;28.29;73.34
73240;BME280;61452;40.054;4.110;2022-07-21T15:38:28;101919.47;;;28.28;73.17
73240;BME280;61452;40.054;4.110;2022-07-21T15:43:30;101914.91;;;28.29;73.05
73240;BME280;61452;40.054;4.110;2022-07-21T15:48:32;101907.66;;;28.29;73.27
73240;BME280;61452;40.054;4.110;2022-07-21T15:53:35;101902.41;;;28.28;73.37
73240;BME280;61452;40.054;4.110;2022-07-21T15:58:40;101903.97;;;28.30;73.11
73240;BME280;61452;40.054;4.110;2022-07-21T16:04:01;101899.41;;;28.31;73.47
73240;BME280;61452;40.054;4.110;2022-07-21T16:09:10;101896.72;;;28.31;73.21
73240;BME280;61452;40.054;4.110;2022-07-21T16:14:26;101888.63;;;28.31;73.00
73240;BME280;61452;40.054;4.110;2022-07-21T16:19:29;101899.25;;;28.32;72.87
73240;BME280;61452;40.054;4.110;2022-07-21T16:24:31;101883.22;;;28.31;72.67
73240;BME280;61452;40.054;4.110;2022-07-21T16:29:34;101884.91;;;28.32;72.63
73240;BME280;61452;40.054;4.110;2022-07-21T16:34:36;101881.56;;;28.46;71.85
73240;BME280;61452;40.054;4.110;2022-07-21T16:39:39;101874.84;;;28.58;71.65
73240;BME280;61452;40.054;4.110;2022-07-21T16:44:41;101868.78;;;28.64;71.87
73240;BME280;61452;40.054;4.110;2022-07-21T16:49:44;101862.22;;;28.67;72.66
73240;BME280;61452;40.054;4.110;2022-07-21T16:54:46;101857.31;;;28.70;71.30
73240;BME280;61452;40.054;4.110;2022-07-21T16:59:49;101861.59;;;28.81;71.09
73240;BME280;61452;40.054;4.110;2022-07-21T17:04:51;101857.38;;;28.78;71.15
73240;BME280;61452;40.054;4.110;2022-07-21T17:09:53;101851.81;;;28.88;71.45
73240;BME280;61452;40.054;4.110;2022-07-21T17:14:56;101855.38;;;28.88;71.20
73240;BME280;61452;40.054;4.110;2022-07-21T17:19:58;101843.19;;;28.76;71.50
73240;BME280;61452;40.054;4.110;2022-07-21T17:25:02;101844.38;;;28.74;71.29
73240;BME280;61452;40.054;4.110;2022-07-21T17:30:05;101840.44;;;28.68;71.71
73240;BME280;61452;40.054;4.110;2022-07-21T17:35:22;101832.88;;;28.64;71.04
73240;BME280;61452;40.054;4.110;2022-07-21T17:40:25;101837.41;;;28.63;70.13
73240;BME280;61452;40.054;4.110;2022-07-21T17:45:28;101836.72;;;28.61;68.32
73240;BME280;61452;40.054;4.110;2022-07-21T17:50:30;101832.50;;;28.58;66.73
73240;BME280;61452;40.054;4.110;2022-07-21T17:55:33;101835.88;;;28.61;66.77
73240;BME280;61452;40.054;4.110;2022-07-21T18:00:36;101834.19;;;28.60;67.30
73240;BME280;61452;40.054;4.110;2022-07-21T18:05:38;101837.03;;;28.58;67.50
73240;BME280;61452;40.054;4.110;2022-07-21T18:10:42;101834.34;;;28.58;68.28
73240;BME280;61452;40.054;4.110;2022-07-21T18:15:45;101825.06;;;28.52;70.07
73240;BME280;61452;40.054;4.110;2022-07-21T18:20:49;101834.69;;;28.55;68.90
73240;BME280;61452;40.054;4.110;2022-07-21T18:25:51;101826.25;;;28.50;69.13
73240;BME280;61452;40.054;4.110;2022-07-21T18:30:54;101827.75;;;28.52;68.66
73240;BME280;61452;40.054;4.110;2022-07-21T18:35:56;101821.31;;;28.45;69.08
73240;BME280;61452;40.054;4.110;2022-07-21T18:40:59;101825.41;;;28.49;69.60
73240;BME280;61452;40.054;4.110;2022-07-21T18:46:01;101825.56;;;28.48;70.44
73240;BME280;61452;40.054;4.110;2022-07-21T18:51:04;101832.97;;;28.46;70.19
73240;BME280;61452;40.054;4.110;2022-07-21T18:56:06;101833.66;;;28.48;70.16
73240;BME280;61452;40.054;4.110;2022-07-21T19:01:09;101819.31;;;28.47;70.16
73240;BME280;61452;40.054;4.110;2022-07-21T19:06:13;101820.50;;;28.53;69.57
73240;BME280;61452;40.054;4.110;2022-07-21T19:11:16;101821.88;;;28.57;69.61
73240;BME280;61452;40.054;4.110;2022-07-21T19:16:18;101828.28;;;28.56;69.93
73240;BME280;61452;40.054;4.110;2022-07-21T19:21:21;101828.59;;;28.53;70.56
73240;BME280;61452;40.054;4.110;2022-07-21T19:26:25;101830.81;;;28.49;70.06
73240;BME280;61452;40.054;4.110;2022-07-21T19:31:29;101826.56;;;28.47;70.57
73240;BME280;61452;40.054;4.110;2022-07-21T19:36:31;101824.38;;;28.42;70.31
73240;BME280;61452;40.054;4.110;2022-07-21T19:41:34;101828.59;;;28.45;70.43
73240;BME280;61452;40.054;4.110;2022-07-21T19:46:36;101835.84;;;28.52;70.53
73240;BME280;61452;40.054;4.110;2022-07-21T19:51:39;101835.50;;;28.47;70.87
73240;BME280;61452;40.054;4.110;2022-07-21T19:56:41;101841.25;;;28.52;71.52
73240;BME280;61452;40.054;4.110;2022-07-21T20:01:44;101840.41;;;28.52;71.00
73240;BME280;61452;40.054;4.110;2022-07-21T20:06:46;101855.28;;;28.56;70.65
73240;BME280;61452;40.054;4.110;2022-07-21T20:11:48;101849.72;;;28.58;71.15
73240;BME280;61452;40.054;4.110;2022-07-21T20:16:51;101859.03;;;28.63;71.07
73240;BME280;61452;40.054;4.110;2022-07-21T20:22:13;101862.19;;;28.58;71.16
73240;BME280;61452;40.054;4.110;2022-07-21T20:27:15;101871.81;;;28.61;71.88
73240;BME280;61452;40.054;4.110;2022-07-21T20:32:18;101871.81;;;28.61;71.14
73240;BME280;61452;40.054;4.110;2022-07-21T20:37:20;101872.34;;;28.56;71.00
73240;BME280;61452;40.054;4.110;2022-07-21T20:42:23;101871.31;;;28.66;71.14
73240;BME280;61452;40.054;4.110;2022-07-21T20:47:25;101875.22;;;28.71;70.69
73240;BME280;61452;40.054;4.110;2022-07-21T20:52:28;101871.66;;;28.71;69.94
73240;BME280;61452;40.054;4.110;2022-07-21T20:57:32;101873.50;;;28.70;69.88
73240;BME280;61452;40.054;4.110;2022-07-21T21:02:35;101871.84;;;28.69;69.76
73240;BME280;61452;40.054;4.110;2022-07-21T21:07:37;101868.81;;;28.72;68.66
73240;BME280;61452;40.054;4.110;2022-07-21T21:12:40;101867.97;;;28.64;68.01
73240;BME280;61452;40.054;4.110;2022-07-21T21:17:42;101864.22;;;28.65;68.19
73240;BME280;61452;40.054;4.110;2022-07-21T21:22:44;101860.38;;;28.67;67.54
73240;BME280;61452;40.054;4.110;2022-07-21T21:27:46;101850.56;;;28.66;67.54
73240;BME280;61452;40.054;4.110;2022-07-21T21:32:49;101847.84;;;28.58;66.93
73240;BME280;61452;40.054;4.110;2022-07-21T21:37:53;101849.84;;;28.48;66.05
73240;BME280;61452;40.054;4.110;2022-07-21T21:42:56;101849.69;;;28.49;66.29
73240;BME280;61452;40.054;4.110;2022-07-21T21:47:58;101848.69;;;28.58;65.28
73240;BME280;61452;40.054;4.110;2022-07-21T21:53:01;101848.22;;;28.63;65.93
73240;BME280;61452;40.054;4.110;2022-07-21T21:58:03;101844.16;;;28.67;65.49
73240;BME280;61452;40.054;4.110;2022-07-21T22:03:06;101844.00;;;28.69;63.82
73240;BME280;61452;40.054;4.110;2022-07-21T22:08:08;101832.88;;;28.64;63.49
73240;BME280;61452;40.054;4.110;2022-07-21T22:13:10;101833.53;;;28.66;63.62
73240;BME280;61452;40.054;4.110;2022-07-21T22:18:13;101831.50;;;28.68;63.54
73240;BME280;61452;40.054;4.110;2022-07-21T22:23:15;101840.28;;;28.70;63.50
73240;BME280;61452;40.054;4.110;2022-07-21T22:28:17;101835.22;;;28.67;63.21
73240;BME280;61452;40.054;4.110;2022-07-21T22:33:20;101840.13;;;28.63;64.06
73240;BME280;61452;40.054;4.110;2022-07-21T22:38:22;101840.13;;;28.63;64.15
73240;BME280;61452;40.054;4.110;2022-07-21T22:43:24;101842.63;;;28.56;63.96
73240;BME280;61452;40.054;4.110;2022-07-21T22:48:27;101826.06;;;28.43;63.69
73240;BME280;61452;40.054;4.110;2022-07-21T22:53:29;101822.38;;;28.44;64.32
73240;BME280;61452;40.054;4.110;2022-07-21T22:58:31;101824.91;;;28.54;63.98
73240;BME280;61452;40.054;4.110;2022-07-21T23:03:34;101815.63;;;28.48;63.72
73240;BME280;61452;40.054;4.110;2022-07-21T23:08:36;101820.19;;;28.56;63.84
73240;BME280;61452;40.054;4.110;2022-07-21T23:13:38;101811.75;;;28.59;63.76
73240;BME280;61452;40.054;4.110;2022-07-21T23:18:41;101811.94;;;28.58;63.54
73240;BME280;61452;40.054;4.110;2022-07-21T23:23:43;101804.16;;;28.54;63.89
73240;BME280;61452;40.054;4.110;2022-07-21T23:28:46;101796.53;;;28.58;62.97
73240;BME280;61452;40.054;4.110;2022-07-21T23:33:48;101796.72;;;28.56;63.11
73240;BME280;61452;40.054;4.110;2022-07-21T23:38:51;101789.97;;;28.52;62.47
73240;BME280;61452;40.054;4.110;2022-07-21T23:43:54;101791.63;;;28.37;62.90
73240;BME280;61452;40.054;4.110;2022-07-21T23:48:56;101787.56;;;28.33;62.91
73240;BME280;61452;40.054;4.110;2022-07-21T23:53:59;101785.38;;;28.29;63.79
73240;BME280;61452;40.054;4.110;2022-07-21T23:59:23;101789.41;;;28.25;62.94
